createdAt,value
2022-12-01T00:00:17.215Z,5
2022-12-01T00:01:17.230Z,6
2022-12-01T00:02:17.385Z,5
2022-12-01T00:03:17.331Z,5
2022-12-01T00:04:17.224Z,5
2022-12-01T00:05:17.240Z,5
2022-12-01T00:06:17.214Z,5
2022-12-01T00:07:17.203Z,5
2022-12-01T00:08:17.241Z,5
2022-12-01T00:09:20.020Z,5
2022-12-01T00:10:17.238Z,4
2022-12-01T00:11:17.215Z,5
2022-12-01T00:12:17.230Z,5
2022-12-01T00:13:17.218Z,5
2022-12-01T00:15:17.214Z,6
2022-12-01T00:16:17.365Z,6
2022-12-01T00:17:17.211Z,5
2022-12-01T00:18:17.216Z,5
2022-12-01T00:19:17.222Z,6
2022-12-01T00:20:17.208Z,5
2022-12-01T00:21:17.217Z,6
2022-12-01T00:22:17.226Z,5
2022-12-01T00:23:17.287Z,5
2022-12-01T00:24:17.224Z,5
2022-12-01T00:25:17.210Z,5
2022-12-01T00:26:17.229Z,5
2022-12-01T00:27:17.205Z,5
2022-12-01T00:28:17.230Z,5
2022-12-01T00:29:17.220Z,6
2022-12-01T00:30:17.267Z,5
2022-12-01T00:31:17.335Z,5
2022-12-01T00:32:17.235Z,5
2022-12-01T00:33:17.212Z,6
2022-12-01T00:35:17.211Z,5
2022-12-01T00:36:17.215Z,5
2022-12-01T00:37:17.234Z,6
2022-12-01T00:38:17.211Z,5
2022-12-01T00:39:17.284Z,5
2022-12-01T00:40:17.204Z,5
2022-12-01T00:41:17.219Z,5
2022-12-01T00:42:17.216Z,5
2022-12-01T00:43:17.216Z,5
2022-12-01T00:44:17.228Z,5
2022-12-01T00:45:17.223Z,5
2022-12-01T00:46:17.330Z,6
2022-12-01T00:47:17.214Z,5
2022-12-01T00:48:17.258Z,6
2022-12-01T00:49:17.220Z,5
2022-12-01T00:50:17.237Z,6
2022-12-01T00:51:17.221Z,5
2022-12-01T00:52:17.225Z,6
2022-12-01T00:53:17.307Z,6
2022-12-01T00:54:17.218Z,6
2022-12-01T00:55:17.226Z,6
2022-12-01T00:56:17.217Z,6
2022-12-01T00:57:17.208Z,6
2022-12-01T00:58:17.223Z,6
2022-12-01T00:59:17.224Z,6
2022-12-01T01:00:17.222Z,6
2022-12-01T01:01:17.289Z,6
2022-12-01T01:02:17.290Z,5
2022-12-01T01:03:17.215Z,6
2022-12-01T01:04:17.213Z,6
2022-12-01T01:05:17.220Z,6
2022-12-01T01:06:17.219Z,6
2022-12-01T01:07:17.221Z,6
2022-12-01T01:08:17.222Z,6
2022-12-01T01:09:17.208Z,6
2022-12-01T01:10:17.360Z,5
2022-12-01T01:11:17.219Z,6
2022-12-01T01:12:17.215Z,6
2022-12-01T01:13:17.234Z,6
2022-12-01T01:14:17.216Z,6
2022-12-01T01:15:17.204Z,6
2022-12-01T01:16:17.290Z,5
2022-12-01T01:17:17.207Z,6
2022-12-01T01:18:17.204Z,6
2022-12-01T01:19:17.207Z,6
2022-12-01T01:20:17.206Z,6
2022-12-01T01:21:17.211Z,6
2022-12-01T01:22:17.214Z,5
2022-12-01T01:23:17.266Z,6
2022-12-01T01:24:17.220Z,6
2022-12-01T01:25:17.225Z,6
2022-12-01T01:26:17.228Z,6
2022-12-01T01:27:17.218Z,5
2022-12-01T01:28:17.214Z,5
2022-12-01T01:29:17.201Z,6
2022-12-01T01:30:17.293Z,6
2022-12-01T01:31:17.288Z,6
2022-12-01T01:32:17.202Z,6
2022-12-01T01:33:17.207Z,6
2022-12-01T01:34:17.216Z,5
2022-12-01T01:35:17.233Z,5
2022-12-01T01:36:17.216Z,6
2022-12-01T01:37:17.211Z,6
2022-12-01T01:38:17.215Z,5
2022-12-01T01:39:17.303Z,6
2022-12-01T01:40:17.201Z,6
2022-12-01T01:41:17.225Z,6
2022-12-01T01:42:17.212Z,6
2022-12-01T01:43:17.226Z,6
2022-12-01T01:44:17.216Z,5
2022-12-01T01:45:17.215Z,5
2022-12-01T01:46:27.282Z,6
2022-12-01T01:47:17.215Z,6
2022-12-01T01:48:17.220Z,6
2022-12-01T01:49:17.236Z,5
2022-12-01T01:50:17.214Z,6
2022-12-01T01:51:17.224Z,6
2022-12-01T01:52:17.206Z,6
2022-12-01T01:53:17.214Z,6
2022-12-01T01:54:17.223Z,5
2022-12-01T01:55:17.201Z,6
2022-12-01T01:56:17.207Z,6
2022-12-01T01:57:17.213Z,5
2022-12-01T01:58:17.213Z,5
2022-12-01T01:59:17.211Z,5
2022-12-01T02:00:17.219Z,6
2022-12-01T02:01:17.413Z,6
2022-12-01T02:02:17.288Z,6
2022-12-01T02:03:17.221Z,5
2022-12-01T02:04:17.215Z,6
2022-12-01T02:05:17.219Z,6
2022-12-01T02:06:17.211Z,6
2022-12-01T02:07:17.215Z,6
2022-12-01T02:08:17.217Z,6
2022-12-01T02:09:17.225Z,6
2022-12-01T02:10:17.228Z,5
2022-12-01T02:11:17.266Z,5
2022-12-01T02:12:17.232Z,5
2022-12-01T02:13:17.216Z,6
2022-12-01T02:14:17.208Z,6
2022-12-01T02:15:17.216Z,6
2022-12-01T02:16:17.275Z,5
2022-12-01T02:17:17.208Z,6
2022-12-01T02:18:17.259Z,6
2022-12-01T02:19:17.215Z,6
2022-12-01T02:20:17.226Z,5
2022-12-01T02:21:17.212Z,6
2022-12-01T02:22:17.200Z,6
2022-12-01T02:23:17.201Z,7
2022-12-01T02:24:17.216Z,6
2022-12-01T02:25:17.263Z,6
2022-12-01T02:26:17.203Z,5
2022-12-01T02:27:17.202Z,6
2022-12-01T02:28:17.216Z,6
2022-12-01T02:29:17.201Z,6
2022-12-01T02:30:17.208Z,5
2022-12-01T02:31:17.281Z,6
2022-12-01T02:32:17.211Z,6
2022-12-01T02:33:17.207Z,6
2022-12-01T02:34:17.215Z,5
2022-12-01T02:35:17.215Z,6
2022-12-01T02:36:17.211Z,6
2022-12-01T02:37:17.205Z,6
2022-12-01T02:38:17.210Z,6
2022-12-01T02:39:17.209Z,6
2022-12-01T02:40:17.205Z,6
2022-12-01T02:41:17.208Z,6
2022-12-01T02:42:17.203Z,6
2022-12-01T02:43:17.237Z,6
2022-12-01T02:44:17.209Z,6
2022-12-01T02:45:17.201Z,6
2022-12-01T02:46:33.540Z,5
2022-12-01T02:47:17.221Z,6
2022-12-01T02:48:17.259Z,6
2022-12-01T02:49:17.200Z,6
2022-12-01T02:50:17.216Z,6
2022-12-01T02:51:17.206Z,6
2022-12-01T02:52:17.220Z,6
2022-12-01T02:53:17.203Z,6
2022-12-01T02:54:17.217Z,6
2022-12-01T02:55:17.260Z,6
2022-12-01T02:56:17.220Z,5
2022-12-01T02:57:17.219Z,5
2022-12-01T02:58:17.206Z,6
2022-12-01T02:59:17.216Z,6
2022-12-01T03:00:17.222Z,6
2022-12-01T03:01:17.260Z,6
2022-12-01T03:02:17.327Z,6
2022-12-01T03:03:17.208Z,6
2022-12-01T03:04:17.214Z,6
2022-12-01T03:05:17.208Z,5
2022-12-01T03:06:17.206Z,6
2022-12-01T03:07:17.198Z,6
2022-12-01T03:08:17.208Z,6
2022-12-01T03:09:17.206Z,6
2022-12-01T03:10:17.203Z,6
2022-12-01T03:11:17.216Z,6
2022-12-01T03:12:17.202Z,6
2022-12-01T03:13:17.196Z,6
2022-12-01T03:14:17.248Z,7
2022-12-01T03:15:17.212Z,6
2022-12-01T03:16:17.234Z,6
2022-12-01T03:17:17.212Z,6
2022-12-01T03:18:17.226Z,6
2022-12-01T03:19:17.219Z,6
2022-12-01T03:20:17.201Z,6
2022-12-01T03:21:17.236Z,6
2022-12-01T03:22:17.211Z,6
2022-12-01T03:23:17.201Z,6
2022-12-01T03:24:17.199Z,7
2022-12-01T03:25:17.215Z,7
2022-12-01T03:26:17.213Z,6
2022-12-01T03:27:17.204Z,6
2022-12-01T03:28:21.946Z,6
2022-12-01T03:29:17.208Z,6
2022-12-01T03:30:17.250Z,7
2022-12-01T03:31:17.317Z,7
2022-12-01T03:32:17.223Z,7
2022-12-01T03:33:17.203Z,7
2022-12-01T03:34:17.205Z,7
2022-12-01T03:35:17.201Z,6
2022-12-01T03:36:17.215Z,7
2022-12-01T03:37:17.197Z,7
2022-12-01T03:38:17.195Z,6
2022-12-01T03:39:17.207Z,6
2022-12-01T03:40:17.194Z,7
2022-12-01T03:41:17.218Z,7
2022-12-01T03:42:17.211Z,7
2022-12-01T03:43:17.199Z,6
2022-12-01T03:44:17.209Z,6
2022-12-01T03:45:17.234Z,7
2022-12-01T03:46:39.528Z,7
2022-12-01T03:47:17.209Z,6
2022-12-01T03:48:17.199Z,7
2022-12-01T03:49:17.193Z,6
2022-12-01T03:50:17.212Z,7
2022-12-01T03:51:17.213Z,7
2022-12-01T03:52:17.213Z,6
2022-12-01T03:53:17.201Z,7
2022-12-01T03:54:17.255Z,7
2022-12-01T03:55:17.202Z,6
2022-12-01T03:56:17.211Z,7
2022-12-01T03:57:17.196Z,7
2022-12-01T03:58:17.217Z,7
2022-12-01T03:59:17.204Z,7
2022-12-01T04:00:17.211Z,7
2022-12-01T04:01:17.222Z,7
2022-12-01T04:02:17.197Z,6
2022-12-01T04:03:17.220Z,7
2022-12-01T04:04:17.211Z,8
2022-12-01T04:05:21.159Z,7
2022-12-01T04:06:17.196Z,7
2022-12-01T04:07:17.273Z,7
2022-12-01T04:08:17.203Z,7
2022-12-01T04:09:17.198Z,7
2022-12-01T04:10:17.240Z,7
2022-12-01T04:11:17.195Z,7
2022-12-01T04:12:17.197Z,6
2022-12-01T04:13:17.199Z,7
2022-12-01T04:14:17.250Z,7
2022-12-01T04:15:17.200Z,8
2022-12-01T04:16:17.300Z,7
2022-12-01T04:17:17.215Z,6
2022-12-01T04:18:17.201Z,7
2022-12-01T04:19:17.197Z,7
2022-12-01T04:20:17.214Z,7
2022-12-01T04:21:17.233Z,7
2022-12-01T04:22:17.211Z,7
2022-12-01T04:23:17.203Z,7
2022-12-01T04:24:17.200Z,7
2022-12-01T04:25:17.237Z,7
2022-12-01T04:26:17.190Z,7
2022-12-01T04:27:17.218Z,7
2022-12-01T04:28:17.205Z,7
2022-12-01T04:29:17.212Z,7
2022-12-01T04:30:17.204Z,7
2022-12-01T04:31:17.293Z,7
2022-12-01T04:32:17.202Z,7
2022-12-01T04:33:17.192Z,7
2022-12-01T04:34:17.203Z,7
2022-12-01T04:35:17.260Z,8
2022-12-01T04:36:17.204Z,7
2022-12-01T04:37:17.196Z,8
2022-12-01T04:38:17.198Z,8
2022-12-01T04:39:17.203Z,7
2022-12-01T04:40:17.191Z,8
2022-12-01T04:41:17.224Z,7
2022-12-01T04:42:17.280Z,7
2022-12-01T04:43:17.205Z,8
2022-12-01T04:44:17.208Z,8
2022-12-01T04:45:17.204Z,8
2022-12-01T04:47:17.244Z,8
2022-12-01T04:48:17.212Z,8
2022-12-01T04:49:17.212Z,8
2022-12-01T04:50:17.200Z,8
2022-12-01T04:51:17.206Z,8
2022-12-01T04:52:17.201Z,8
2022-12-01T04:53:17.201Z,8
2022-12-01T04:54:17.214Z,8
2022-12-01T04:55:17.217Z,8
2022-12-01T04:56:17.212Z,9
2022-12-01T04:57:17.198Z,8
2022-12-01T04:58:17.205Z,9
2022-12-01T04:59:17.188Z,8
2022-12-01T05:00:17.209Z,9
2022-12-01T05:01:17.314Z,8
2022-12-01T05:02:17.274Z,9
2022-12-01T05:03:17.270Z,8
2022-12-01T05:04:17.198Z,8
2022-12-01T05:05:17.281Z,8
2022-12-01T05:06:17.210Z,8
2022-12-01T05:07:17.207Z,8
2022-12-01T05:08:17.203Z,9
2022-12-01T05:09:18.002Z,9
2022-12-01T05:10:17.212Z,8
2022-12-01T05:11:17.206Z,9
2022-12-01T05:12:17.193Z,8
2022-12-01T05:13:17.200Z,8
2022-12-01T05:14:17.204Z,8
2022-12-01T05:15:17.200Z,8
2022-12-01T05:16:17.280Z,9
2022-12-01T05:17:17.274Z,9
2022-12-01T05:18:17.272Z,9
2022-12-01T05:19:17.213Z,9
2022-12-01T05:20:17.207Z,9
2022-12-01T05:21:17.227Z,8
2022-12-01T05:22:20.415Z,9
2022-12-01T05:23:17.388Z,9
2022-12-01T05:24:17.209Z,9
2022-12-01T05:25:17.202Z,9
2022-12-01T05:27:17.195Z,9
2022-12-01T05:28:17.198Z,10
2022-12-01T05:29:17.200Z,9
2022-12-01T05:30:17.202Z,9
2022-12-01T05:31:17.297Z,9
2022-12-01T05:32:17.192Z,10
2022-12-01T05:33:17.207Z,9
2022-12-01T05:34:17.198Z,9
2022-12-01T05:35:17.212Z,9
2022-12-01T05:36:17.201Z,9
2022-12-01T05:37:17.199Z,9
2022-12-01T05:38:17.197Z,9
2022-12-01T05:39:17.191Z,9
2022-12-01T05:40:17.206Z,9
2022-12-01T05:41:17.207Z,9
2022-12-01T05:42:17.195Z,9
2022-12-01T05:43:17.212Z,9
2022-12-01T05:44:17.201Z,9
2022-12-01T05:45:17.193Z,9
2022-12-01T05:46:17.294Z,9
2022-12-01T05:47:17.261Z,9
2022-12-01T05:48:17.212Z,9
2022-12-01T05:49:17.224Z,8
2022-12-01T05:50:17.194Z,10
2022-12-01T05:51:17.205Z,9
2022-12-01T05:52:17.195Z,9
2022-12-01T05:53:17.207Z,9
2022-12-01T05:54:17.205Z,9
2022-12-01T05:55:17.250Z,10
2022-12-01T05:56:17.398Z,10
2022-12-01T05:57:17.195Z,10
2022-12-01T05:58:17.224Z,10
2022-12-01T05:59:17.193Z,10
2022-12-01T06:00:17.197Z,10
2022-12-01T06:01:17.215Z,9
2022-12-01T06:02:17.228Z,9
2022-12-01T06:03:17.193Z,10
2022-12-01T06:04:17.277Z,11
2022-12-01T06:05:17.214Z,10
2022-12-01T06:06:17.197Z,10
2022-12-01T06:07:17.200Z,11
2022-12-01T06:08:17.255Z,10
2022-12-01T06:09:17.211Z,10
2022-12-01T06:10:17.193Z,10
2022-12-01T06:11:17.190Z,10
2022-12-01T06:12:17.197Z,10
2022-12-01T06:13:17.226Z,10
2022-12-01T06:14:17.198Z,10
2022-12-01T06:15:17.262Z,10
2022-12-01T06:16:17.256Z,10
2022-12-01T06:17:17.206Z,10
2022-12-01T06:18:17.222Z,10
2022-12-01T06:19:17.213Z,11
2022-12-01T06:20:17.215Z,11
2022-12-01T06:21:17.213Z,10
2022-12-01T06:22:17.236Z,10
2022-12-01T06:23:17.195Z,11
2022-12-01T06:24:17.205Z,10
2022-12-01T06:25:17.199Z,10
2022-12-01T06:26:17.199Z,10
2022-12-01T06:27:17.210Z,10
2022-12-01T06:28:17.207Z,10
2022-12-01T06:29:17.268Z,10
2022-12-01T06:30:17.201Z,11
2022-12-01T06:31:17.245Z,10
2022-12-01T06:32:17.207Z,10
2022-12-01T06:33:17.215Z,11
2022-12-01T06:34:17.196Z,11
2022-12-01T06:35:17.207Z,10
2022-12-01T06:36:17.264Z,10
2022-12-01T06:37:17.232Z,11
2022-12-01T06:38:17.201Z,11
2022-12-01T06:39:17.196Z,10
2022-12-01T06:40:17.198Z,10
2022-12-01T06:41:17.230Z,10
2022-12-01T06:42:17.195Z,11
2022-12-01T06:43:17.321Z,11
2022-12-01T06:44:17.195Z,11
2022-12-01T06:45:17.211Z,10
2022-12-01T06:46:17.250Z,10
2022-12-01T06:47:17.204Z,10
2022-12-01T06:48:17.196Z,11
2022-12-01T06:49:17.195Z,11
2022-12-01T06:50:17.295Z,11
2022-12-01T06:51:17.318Z,9
2022-12-01T06:52:17.191Z,10
2022-12-01T06:53:17.205Z,11
2022-12-01T06:54:17.202Z,11
2022-12-01T06:55:17.210Z,10
2022-12-01T06:56:17.217Z,10
2022-12-01T06:57:17.202Z,10
2022-12-01T06:58:17.200Z,10
2022-12-01T06:59:17.197Z,10
2022-12-01T07:00:17.196Z,11
2022-12-01T07:01:17.227Z,10
2022-12-01T07:02:17.256Z,10
2022-12-01T07:03:17.193Z,10
2022-12-01T07:04:17.192Z,11
2022-12-01T07:05:17.197Z,11
2022-12-01T07:06:17.224Z,10
2022-12-01T07:07:35.481Z,10
2022-12-01T07:08:17.260Z,11
2022-12-01T07:09:17.193Z,11
2022-12-01T07:10:17.195Z,10
2022-12-01T07:11:17.243Z,10
2022-12-01T07:12:17.362Z,11
2022-12-01T07:13:17.201Z,11
2022-12-01T07:14:17.208Z,12
2022-12-01T07:15:17.206Z,11
2022-12-01T07:16:17.281Z,11
2022-12-01T07:17:17.190Z,10
2022-12-01T07:18:17.192Z,11
2022-12-01T07:19:17.187Z,11
2022-12-01T07:20:17.202Z,10
2022-12-01T07:21:17.195Z,10
2022-12-01T07:22:17.279Z,10
2022-12-01T07:23:17.207Z,11
2022-12-01T07:24:17.199Z,10
2022-12-01T07:25:17.220Z,11
2022-12-01T07:26:17.194Z,10
2022-12-01T07:27:17.210Z,11
2022-12-01T07:28:17.187Z,10
2022-12-01T07:29:17.232Z,11
2022-12-01T07:30:17.192Z,10
2022-12-01T07:31:17.295Z,11
2022-12-01T07:32:17.208Z,10
2022-12-01T07:33:17.186Z,10
2022-12-01T07:34:17.191Z,11
2022-12-01T07:35:17.196Z,11
2022-12-01T07:36:17.242Z,11
2022-12-01T07:37:17.210Z,11
2022-12-01T07:38:21.891Z,11
2022-12-01T07:39:17.225Z,10
2022-12-01T07:40:17.198Z,10
2022-12-01T07:41:17.199Z,10
2022-12-01T07:42:17.200Z,11
2022-12-01T07:43:17.198Z,11
2022-12-01T07:44:17.189Z,12
2022-12-01T07:45:17.198Z,11
2022-12-01T07:46:22.260Z,11
2022-12-01T07:47:17.196Z,12
2022-12-01T07:48:17.192Z,11
2022-12-01T07:49:17.196Z,11
2022-12-01T07:50:17.269Z,12
2022-12-01T07:51:17.208Z,12
2022-12-01T07:52:17.182Z,11
2022-12-01T07:53:17.230Z,12
2022-12-01T07:54:17.205Z,11
2022-12-01T07:55:17.215Z,11
2022-12-01T07:56:17.191Z,11
2022-12-01T07:57:17.208Z,12
2022-12-01T07:58:17.211Z,13
2022-12-01T07:59:17.198Z,12
2022-12-01T08:00:17.200Z,12
2022-12-01T08:01:17.346Z,13
2022-12-01T08:02:17.370Z,12
2022-12-01T08:03:17.270Z,11
2022-12-01T08:04:17.193Z,11
2022-12-01T08:05:17.206Z,11
2022-12-01T08:06:17.215Z,12
2022-12-01T08:08:17.275Z,11
2022-12-01T08:09:17.193Z,11
2022-12-01T08:10:17.198Z,11
2022-12-01T08:11:17.218Z,11
2022-12-01T08:12:17.207Z,11
2022-12-01T08:13:17.696Z,11
2022-12-01T08:14:17.190Z,11
2022-12-01T08:15:17.198Z,11
2022-12-01T08:16:17.263Z,11
2022-12-01T08:17:33.480Z,11
2022-12-01T08:18:17.193Z,10
2022-12-01T08:19:17.220Z,11
2022-12-01T08:20:22.320Z,11
2022-12-01T08:21:17.186Z,10
2022-12-01T08:22:17.257Z,10
2022-12-01T08:23:17.229Z,11
2022-12-01T08:24:17.216Z,11
2022-12-01T08:25:17.216Z,11
2022-12-01T08:26:17.223Z,10
2022-12-01T08:27:17.202Z,11
2022-12-01T08:28:17.185Z,11
2022-12-01T08:29:20.432Z,10
2022-12-01T08:30:17.193Z,11
2022-12-01T08:31:17.303Z,10
2022-12-01T08:32:17.190Z,11
2022-12-01T08:33:17.186Z,11
2022-12-01T08:34:17.228Z,11
2022-12-01T08:35:17.197Z,11
2022-12-01T08:36:17.261Z,12
2022-12-01T08:37:17.190Z,12
2022-12-01T08:38:17.236Z,12
2022-12-01T08:39:17.210Z,11
2022-12-01T08:40:17.183Z,12
2022-12-01T08:41:17.212Z,12
2022-12-01T08:42:17.195Z,11
2022-12-01T08:43:41.469Z,11
2022-12-01T08:44:17.244Z,11
2022-12-01T08:45:17.194Z,11
2022-12-01T08:46:17.216Z,11
2022-12-01T08:47:18.912Z,12
2022-12-01T08:48:17.187Z,11
2022-12-01T08:49:17.198Z,11
2022-12-01T08:50:17.196Z,11
2022-12-01T08:51:17.186Z,10
2022-12-01T08:52:17.201Z,10
2022-12-01T08:53:17.191Z,10
2022-12-01T08:54:17.195Z,10
2022-12-01T08:55:17.221Z,10
2022-12-01T08:56:17.180Z,10
2022-12-01T08:57:17.196Z,11
2022-12-01T08:58:17.192Z,10
2022-12-01T08:59:17.196Z,10
2022-12-01T09:00:17.194Z,10
2022-12-01T09:01:17.333Z,10
2022-12-01T09:02:17.207Z,9
2022-12-01T09:03:17.219Z,9
2022-12-01T09:04:17.202Z,9
2022-12-01T09:05:17.185Z,10
2022-12-01T09:06:17.183Z,9
2022-12-01T09:07:20.266Z,10
2022-12-01T09:08:17.326Z,9
2022-12-01T09:09:17.198Z,9
2022-12-01T09:10:17.198Z,9
2022-12-01T09:11:17.190Z,9
2022-12-01T09:12:17.202Z,9
2022-12-01T09:13:17.200Z,9
2022-12-01T09:14:17.199Z,9
2022-12-01T09:15:17.202Z,9
2022-12-01T09:16:17.317Z,9
2022-12-01T09:17:39.448Z,9
2022-12-01T09:18:17.195Z,8
2022-12-01T09:19:23.638Z,9
2022-12-01T09:20:17.191Z,8
2022-12-01T09:21:17.199Z,8
2022-12-01T09:22:17.503Z,9
2022-12-01T09:23:17.198Z,9
2022-12-01T09:24:17.193Z,8
2022-12-01T09:25:17.216Z,9
2022-12-01T09:26:17.221Z,8
2022-12-01T09:27:17.194Z,9
2022-12-01T09:28:17.181Z,8
2022-12-01T09:29:17.199Z,9
2022-12-01T09:30:17.206Z,9
2022-12-01T09:31:17.209Z,8
2022-12-01T09:32:17.197Z,8
2022-12-01T09:33:17.211Z,8
2022-12-01T09:34:17.186Z,9
2022-12-01T09:35:22.038Z,9
2022-12-01T09:36:17.194Z,9
2022-12-01T09:37:17.176Z,8
2022-12-01T09:38:17.194Z,8
2022-12-01T09:39:17.185Z,8
2022-12-01T09:40:17.205Z,9
2022-12-01T09:41:17.191Z,8
2022-12-01T09:42:17.188Z,8
2022-12-01T09:43:17.195Z,8
2022-12-01T09:44:17.192Z,8
2022-12-01T09:45:17.189Z,8
2022-12-01T09:46:17.231Z,8
2022-12-01T09:47:17.193Z,8
2022-12-01T09:48:17.280Z,7
2022-12-01T09:49:17.222Z,8
2022-12-01T09:50:17.265Z,7
2022-12-01T09:51:17.222Z,9
2022-12-01T09:52:17.190Z,8
2022-12-01T09:53:17.191Z,8
2022-12-01T09:54:17.199Z,8
2022-12-01T09:55:17.190Z,9
2022-12-01T09:56:17.198Z,8
2022-12-01T09:57:17.269Z,8
2022-12-01T09:58:17.200Z,8
2022-12-01T09:59:17.198Z,7
2022-12-01T10:00:17.192Z,7
2022-12-01T10:01:17.321Z,8
2022-12-01T10:02:17.237Z,8
2022-12-01T10:03:17.197Z,7
2022-12-01T10:04:17.221Z,8
2022-12-01T10:05:17.259Z,8
2022-12-01T10:06:32.451Z,8
2022-12-01T10:07:17.189Z,8
2022-12-01T10:08:17.980Z,8
2022-12-01T10:09:17.186Z,8
2022-12-01T10:10:17.206Z,7
2022-12-01T10:11:17.185Z,8
2022-12-01T10:12:17.223Z,7
2022-12-01T10:13:17.193Z,7
2022-12-01T10:14:19.956Z,7
2022-12-01T10:15:17.199Z,7
2022-12-01T10:16:17.228Z,7
2022-12-01T10:18:17.187Z,7
2022-12-01T10:19:17.188Z,7
2022-12-01T10:20:17.189Z,7
2022-12-01T10:21:17.179Z,7
2022-12-01T10:22:17.179Z,7
2022-12-01T10:23:17.274Z,7
2022-12-01T10:24:17.189Z,7
2022-12-01T10:25:17.195Z,7
2022-12-01T10:26:17.203Z,7
2022-12-01T10:27:17.175Z,7
2022-12-01T10:28:17.213Z,6
2022-12-01T10:29:17.201Z,7
2022-12-01T10:30:17.183Z,6
2022-12-01T10:31:17.248Z,6
2022-12-01T10:32:17.226Z,6
2022-12-01T10:33:17.190Z,6
2022-12-01T10:34:17.210Z,6
2022-12-01T10:35:17.200Z,6
2022-12-01T10:36:17.175Z,6
2022-12-01T10:37:17.264Z,6
2022-12-01T10:38:17.197Z,6
2022-12-01T10:39:17.189Z,6
2022-12-01T10:40:17.184Z,6
2022-12-01T10:41:17.179Z,6
2022-12-01T10:42:17.191Z,6
2022-12-01T10:43:17.183Z,7
2022-12-01T10:44:17.184Z,7
2022-12-01T10:45:17.193Z,7
2022-12-01T10:46:17.209Z,7
2022-12-01T10:47:17.185Z,7
2022-12-01T10:48:17.205Z,7
2022-12-01T10:49:17.206Z,7
2022-12-01T10:50:17.259Z,7
2022-12-01T10:51:17.175Z,6
2022-12-01T10:52:17.194Z,7
2022-12-01T10:53:17.193Z,7
2022-12-01T10:54:17.188Z,7
2022-12-01T10:55:17.178Z,7
2022-12-01T10:56:17.209Z,7
2022-12-01T10:57:17.190Z,7
2022-12-01T10:58:17.205Z,7
2022-12-01T10:59:17.211Z,7
2022-12-01T11:00:36.235Z,6
2022-12-01T11:01:17.322Z,6
2022-12-01T11:02:17.400Z,7
2022-12-01T11:03:21.556Z,7
2022-12-01T11:04:17.203Z,7
2022-12-01T11:05:17.190Z,7
2022-12-01T11:06:17.188Z,7
2022-12-01T11:07:17.198Z,7
2022-12-01T11:08:17.188Z,6
2022-12-01T11:09:20.242Z,6
2022-12-01T11:10:17.181Z,7
2022-12-01T11:11:17.199Z,7
2022-12-01T11:12:17.188Z,6
2022-12-01T11:13:17.179Z,7
2022-12-01T11:14:17.193Z,7
2022-12-01T11:15:17.191Z,7
2022-12-01T11:16:17.206Z,6
2022-12-01T11:17:17.187Z,7
2022-12-01T11:18:17.169Z,7
2022-12-01T11:19:20.514Z,7
2022-12-01T11:20:17.215Z,7
2022-12-01T11:21:17.249Z,7
2022-12-01T11:22:17.192Z,7
2022-12-01T11:23:17.176Z,7
2022-12-01T11:25:17.188Z,7
2022-12-01T11:26:17.207Z,6
2022-12-01T11:27:17.174Z,6
2022-12-01T11:28:17.255Z,6
2022-12-01T11:29:17.184Z,6
2022-12-01T11:30:17.212Z,7
2022-12-01T11:31:17.225Z,8
2022-12-01T11:32:17.290Z,8
2022-12-01T11:33:17.176Z,7
2022-12-01T11:34:17.188Z,7
2022-12-01T11:35:17.189Z,8
2022-12-01T11:36:17.190Z,8
2022-12-01T11:37:17.193Z,8
2022-12-01T11:38:32.568Z,9
2022-12-01T11:39:17.201Z,8
2022-12-01T11:40:17.178Z,8
2022-12-01T11:41:17.176Z,8
2022-12-01T11:42:17.184Z,9
2022-12-01T11:43:17.190Z,9
2022-12-01T11:44:35.658Z,9
2022-12-01T11:45:17.187Z,8
2022-12-01T11:46:17.233Z,9
2022-12-01T11:47:24.572Z,8
2022-12-01T11:48:17.194Z,9
2022-12-01T11:49:17.182Z,9
2022-12-01T11:50:17.199Z,8
2022-12-01T11:51:17.184Z,9
2022-12-01T11:52:17.182Z,9
2022-12-01T11:53:17.193Z,9
2022-12-01T11:54:17.190Z,10
2022-12-01T11:55:17.181Z,9
2022-12-01T11:56:17.198Z,9
2022-12-01T11:57:33.786Z,9
2022-12-01T11:58:17.187Z,9
2022-12-01T11:59:17.184Z,9
2022-12-01T12:00:17.192Z,9
2022-12-01T12:01:21.803Z,10
2022-12-01T12:02:17.253Z,9
2022-12-01T12:03:17.228Z,9
2022-12-01T12:04:17.188Z,9
2022-12-01T12:05:17.226Z,10
2022-12-01T12:06:39.473Z,10
2022-12-01T12:07:17.190Z,10
2022-12-01T12:08:17.183Z,10
2022-12-01T12:09:17.175Z,10
2022-12-01T12:10:17.275Z,10
2022-12-01T12:11:17.383Z,11
2022-12-01T12:12:17.233Z,12
2022-12-01T12:13:17.173Z,10
2022-12-01T12:14:17.178Z,10
2022-12-01T12:15:17.193Z,10
2022-12-01T12:16:17.211Z,10
2022-12-01T12:17:17.284Z,9
2022-12-01T12:18:17.199Z,10
2022-12-01T12:19:17.248Z,9
2022-12-01T12:20:17.659Z,11
2022-12-01T12:21:17.187Z,10
2022-12-01T12:22:17.175Z,10
2022-12-01T12:23:17.182Z,10
2022-12-01T12:24:17.175Z,11
2022-12-01T12:25:17.184Z,8
2022-12-01T12:26:17.198Z,10
2022-12-01T12:27:17.173Z,11
2022-12-01T12:28:17.259Z,10
2022-12-01T12:29:17.197Z,11
2022-12-01T12:30:17.250Z,11
2022-12-01T12:31:17.216Z,11
2022-12-01T12:32:17.211Z,11
2022-12-01T12:33:17.195Z,11
2022-12-01T12:34:17.192Z,11
2022-12-01T12:35:17.176Z,11
2022-12-01T12:36:17.191Z,12
2022-12-01T12:37:17.417Z,11
2022-12-01T12:38:27.194Z,11
2022-12-01T12:39:17.298Z,10
2022-12-01T12:40:17.226Z,12
2022-12-01T12:41:17.180Z,12
2022-12-01T12:42:17.184Z,12
2022-12-01T12:43:17.175Z,12
2022-12-01T12:44:17.182Z,13
2022-12-01T12:45:17.178Z,11
2022-12-01T12:46:17.275Z,12
2022-12-01T12:47:17.195Z,13
2022-12-01T12:48:17.175Z,12
2022-12-01T12:49:20.907Z,12
2022-12-01T12:50:17.242Z,12
2022-12-01T12:51:17.177Z,11
2022-12-01T12:52:17.189Z,13
2022-12-01T12:54:17.227Z,13
2022-12-01T12:55:17.191Z,12
2022-12-01T12:56:17.182Z,11
2022-12-01T12:57:17.181Z,13
2022-12-01T12:58:17.186Z,13
2022-12-01T12:59:17.191Z,13
2022-12-01T13:00:17.244Z,13
2022-12-01T13:01:17.262Z,12
2022-12-01T13:02:17.261Z,14
2022-12-01T13:03:17.221Z,13
2022-12-01T13:04:17.192Z,13
2022-12-01T13:05:17.179Z,13
2022-12-01T13:06:17.172Z,13
2022-12-01T13:07:17.174Z,13
2022-12-01T13:08:17.178Z,14
2022-12-01T13:09:17.187Z,13
2022-12-01T13:10:17.179Z,13
2022-12-01T13:11:17.186Z,13
2022-12-01T13:12:17.176Z,12
2022-12-01T13:13:17.174Z,14
2022-12-01T13:14:17.176Z,13
2022-12-01T13:15:17.199Z,14
2022-12-01T13:16:17.207Z,13
2022-12-01T13:17:17.181Z,15
2022-12-01T13:18:17.182Z,13
2022-12-01T13:19:17.185Z,14
2022-12-01T13:20:17.172Z,14
2022-12-01T13:21:17.285Z,14
2022-12-01T13:22:17.189Z,15
2022-12-01T13:23:17.181Z,14
2022-12-01T13:24:22.570Z,15
2022-12-01T13:25:17.192Z,13
2022-12-01T13:26:17.178Z,14
2022-12-01T13:27:17.169Z,13
2022-12-01T13:28:17.321Z,13
2022-12-01T13:29:17.200Z,14
2022-12-01T13:30:17.173Z,14
2022-12-01T13:31:17.206Z,13
2022-12-01T13:32:17.187Z,14
2022-12-01T13:33:17.175Z,15
2022-12-01T13:34:17.210Z,15
2022-12-01T13:35:17.242Z,15
2022-12-01T13:37:17.190Z,15
2022-12-01T13:38:17.175Z,15
2022-12-01T13:39:17.181Z,15
2022-12-01T13:40:17.184Z,15
2022-12-01T13:41:17.174Z,14
2022-12-01T13:42:17.170Z,15
2022-12-01T13:43:17.172Z,15
2022-12-01T13:44:20.120Z,14
2022-12-01T13:45:17.180Z,15
2022-12-01T13:46:17.236Z,14
2022-12-01T13:47:17.176Z,15
2022-12-01T13:48:39.677Z,15
2022-12-01T13:49:17.198Z,14
2022-12-01T13:50:17.181Z,15
2022-12-01T13:51:17.184Z,15
2022-12-01T13:52:17.203Z,16
2022-12-01T13:53:17.227Z,15
2022-12-01T13:54:17.169Z,16
2022-12-01T13:55:17.181Z,15
2022-12-01T13:56:17.179Z,15
2022-12-01T13:57:17.173Z,15
2022-12-01T13:58:17.167Z,15
2022-12-01T13:59:17.196Z,15
2022-12-01T14:00:17.316Z,15
2022-12-01T14:01:17.265Z,15
2022-12-01T14:02:17.334Z,16
2022-12-01T14:03:17.284Z,15
2022-12-01T14:04:17.181Z,15
2022-12-01T14:05:17.208Z,15
2022-12-01T14:06:17.171Z,15
2022-12-01T14:07:17.171Z,15
2022-12-01T14:08:22.794Z,15
2022-12-01T14:09:17.178Z,14
2022-12-01T14:10:17.186Z,15
2022-12-01T14:11:17.186Z,14
2022-12-01T14:12:17.180Z,14
2022-12-01T14:13:17.195Z,15
2022-12-01T14:14:21.232Z,14
2022-12-01T14:15:17.196Z,14
2022-12-01T14:16:17.320Z,14
2022-12-01T14:17:17.189Z,14
2022-12-01T14:18:17.193Z,14
2022-12-01T14:19:17.188Z,14
2022-12-01T14:20:17.170Z,12
2022-12-01T14:21:17.175Z,14
2022-12-01T14:22:17.185Z,15
2022-12-01T14:23:17.184Z,14
2022-12-01T14:24:17.207Z,14
2022-12-01T14:25:17.181Z,14
2022-12-01T14:26:17.183Z,14
2022-12-01T14:27:17.215Z,14
2022-12-01T14:28:17.228Z,14
2022-12-01T14:29:17.177Z,12
2022-12-01T14:30:17.200Z,14
2022-12-01T14:31:17.244Z,14
2022-12-01T14:32:17.174Z,13
2022-12-01T14:33:17.193Z,14
2022-12-01T14:34:19.095Z,13
2022-12-01T14:35:17.174Z,14
2022-12-01T14:36:17.201Z,14
2022-12-01T14:37:17.253Z,14
2022-12-01T14:38:17.199Z,13
2022-12-01T14:39:17.191Z,14
2022-12-01T14:40:17.168Z,13
2022-12-01T14:41:22.409Z,13
2022-12-01T14:42:17.168Z,14
2022-12-01T14:43:17.176Z,13